METAR LDLO 260900Z 07006KT CAVOK 21/14 Q1015=
METAR LDLO 260800Z 06005KT CAVOK 19/15 Q1015=
METAR LDLO 260700Z 05007KT CAVOK 19/15 Q1014=
METAR LDLO 260600Z 05005KT CAVOK 18/15 Q1014=
METAR LDLO 251800Z 17005KT CAVOK 19/16 Q1014=
METAR LDLO 251700Z 18006KT CAVOK 19/17 Q1014=
METAR LDLO 251600Z 18004KT CAVOK 21/15 Q1013=
METAR LDLO 251500Z 19005KT CAVOK 22/15 Q1014=
METAR LDLO 251400Z 19005KT CAVOK 22/15 Q1014=
METAR LDLO 251300Z 15005KT CAVOK 22/14 Q1014=
METAR LDLO 251200Z 16006KT CAVOK 22/14 Q1014=
METAR LDLO 251100Z 18007KT CAVOK 23/15 Q1015=
METAR LDLO 251000Z 10005KT CAVOK 23/14 Q1015=
METAR LDLO 250900Z 15005KT CAVOK 22/13 Q1015=
METAR LDLO 250800Z 14005KT CAVOK 20/14 Q1015=
METAR LDLO 250700Z 15004KT CAVOK 20/14 Q1014=
METAR LDLO 250600Z 11004KT CAVOK 19/14 Q1014=